KVEL/VEL METAR and TAF weather

Enter ICAO airport designator
Station Type Date Time Source
KVEL METAR 2022/08/12 13:53 UTC NOAA

KVEL 121353Z AUTO 03003KT 10SM FEW100 19/16 A3031 RMK AO2 RAB1256E07 SLP187 P0000 T01940156


Station Type Date Time Source
KVEL Decoded METAR 2022/08/12 13:53 UTC NOAA

VERNAL AIRPORT, UT, United States (KVEL) 40-26N 109-30W 1604M
Aug 12, 2022 - 09:53 AM EDT / 2022.08.12 1353 UTC
Wind: from the NNE (030 degrees) at 3 MPH (3 KT):0
Visibility: 10 mile(s):0
Sky conditions: mostly clear
Precipitation last hour: A trace
Temperature: 66.9 F (19.4 C)
Dew Point: 60.1 F (15.6 C)
Relative Humidity: 78%
Pressure (altimeter): 30.31 in. Hg (1026 hPa)
ob: KVEL 121353Z AUTO 03003KT 10SM FEW100 19/16 A3031 RMK AO2 RAB1256E07 SLP187 P0000 T01940156
cycle: 14

Station Type Date Time Source
KVEL TAF 2022/08/12 12:36 UTC NOAA

TAF KVEL 121134Z 1212/1312 VRB04KT P6SM FEW060 SCT100
FM121800 20008KT P6SM FEW100
FM130200 32006KT P6SM SCT100 BKN120
FM130900 VRB04KT P6SM FEW100 SCT250

Example: see airport list